createdAt,value
2019-03-27T00:00:57.983Z,80.95
2019-03-27T00:03:26.464Z,80.84
2019-03-27T00:05:54.903Z,80.63
2019-03-27T00:08:23.349Z,80.56
2019-03-27T00:10:51.860Z,80.54
2019-03-27T00:13:20.362Z,80.42
2019-03-27T00:15:48.826Z,80.25
2019-03-27T00:18:17.334Z,80.03
2019-03-27T00:20:45.841Z,79.91
2019-03-27T00:23:15.684Z,79.84
2019-03-27T00:25:44.279Z,79.69
2019-03-27T00:28:13.604Z,79.66
2019-03-27T00:30:42.028Z,79.35
2019-03-27T00:33:10.487Z,79.27
2019-03-27T00:35:38.764Z,79.20
2019-03-27T00:38:07.253Z,79.15
2019-03-27T00:40:35.739Z,78.99
2019-03-27T00:43:04.156Z,78.86
2019-03-27T00:45:32.813Z,78.81
2019-03-27T00:48:09.381Z,78.40
2019-03-27T00:50:39.103Z,78.36
2019-03-27T00:53:07.723Z,78.16
2019-03-27T00:55:36.277Z,78.08
2019-03-27T00:58:04.798Z,77.95
2019-03-27T01:01:04.420Z,78.11
2019-03-27T01:03:32.999Z,77.91
2019-03-27T01:06:01.523Z,77.82
2019-03-27T01:08:29.904Z,77.62
2019-03-27T01:10:58.346Z,77.41
2019-03-27T01:13:26.749Z,77.27
2019-03-27T01:15:55.369Z,77.17
2019-03-27T01:18:24.495Z,77.13
2019-03-27T01:20:52.942Z,76.92
2019-03-27T01:23:21.291Z,76.92
2019-03-27T01:25:50.505Z,76.65
2019-03-27T01:28:18.870Z,76.66
2019-03-27T01:30:47.262Z,76.54
2019-03-27T01:33:15.690Z,76.36
2019-03-27T01:35:44.174Z,76.28
2019-03-27T01:38:12.484Z,76.41
2019-03-27T01:40:40.827Z,76.49
2019-03-27T01:43:09.220Z,76.22
2019-03-27T01:45:37.794Z,76.29
2019-03-27T01:48:06.208Z,76.21
2019-03-27T01:50:42.611Z,76.22
2019-03-27T01:53:10.982Z,76.28
2019-03-27T01:55:39.470Z,76.13
2019-03-27T01:58:07.760Z,76.30
2019-03-27T02:00:36.260Z,76.18
2019-03-27T02:03:05.450Z,75.99
2019-03-27T02:05:34.021Z,75.89
2019-03-27T02:08:02.443Z,76.06
2019-03-27T02:10:31.022Z,75.90
2019-03-27T02:12:59.412Z,75.85
2019-03-27T02:15:29.756Z,75.87
2019-03-27T02:17:58.183Z,76.16
2019-03-27T02:20:26.551Z,76.40
2019-03-27T02:22:55.046Z,76.48
2019-03-27T02:25:23.531Z,76.51
2019-03-27T02:27:51.850Z,76.45
2019-03-27T02:30:20.310Z,76.31
2019-03-27T02:32:48.811Z,76.32
2019-03-27T02:35:17.175Z,76.70
2019-03-27T02:37:45.979Z,77.09
2019-03-27T02:40:14.490Z,77.30
2019-03-27T02:42:42.947Z,77.30
2019-03-27T02:45:13.251Z,77.13
2019-03-27T02:47:41.621Z,77.24
2019-03-27T02:50:10.072Z,77.41
2019-03-27T02:52:40.991Z,77.44
2019-03-27T02:55:09.649Z,77.36
2019-03-27T02:57:37.977Z,77.25
2019-03-27T03:00:08.049Z,77.19
2019-03-27T03:02:36.424Z,77.21
2019-03-27T03:05:06.141Z,77.23
2019-03-27T03:07:34.475Z,77.23
2019-03-27T03:10:03.048Z,77.22
2019-03-27T03:12:31.363Z,77.31
2019-03-27T03:14:59.727Z,77.42
2019-03-27T03:17:28.321Z,77.51
2019-03-27T03:19:56.622Z,77.54
2019-03-27T03:22:25.103Z,77.51
2019-03-27T03:24:53.581Z,77.76
2019-03-27T03:27:22.059Z,77.85
2019-03-27T03:29:50.545Z,77.85
2019-03-27T03:32:19.034Z,77.91
2019-03-27T03:34:47.450Z,78.06
2019-03-27T03:37:15.926Z,78.12
2019-03-27T03:39:44.310Z,78.05
2019-03-27T03:42:12.985Z,78.05
2019-03-27T03:44:41.314Z,78.12
2019-03-27T03:47:09.766Z,78.07
2019-03-27T03:49:38.179Z,78.10
2019-03-27T03:52:06.800Z,78.22
2019-03-27T03:54:35.814Z,78.36
2019-03-27T03:57:04.494Z,78.33
2019-03-27T03:59:35.298Z,78.51
2019-03-27T04:02:04.090Z,78.49
2019-03-27T04:04:34.989Z,78.57
2019-03-27T04:07:03.420Z,78.48
2019-03-27T04:09:32.415Z,78.55
2019-03-27T04:12:01.001Z,78.57
2019-03-27T04:14:29.433Z,78.72
2019-03-27T04:16:57.801Z,78.80
2019-03-27T04:19:26.228Z,78.97
2019-03-27T04:21:54.590Z,79.18
2019-03-27T04:24:23.891Z,79.11
2019-03-27T04:26:52.362Z,78.90
2019-03-27T04:29:21.603Z,79.22
2019-03-27T04:31:49.984Z,79.19
2019-03-27T04:34:18.280Z,79.39
2019-03-27T04:36:47.056Z,79.36
2019-03-27T04:39:15.460Z,79.58
2019-03-27T04:41:44.032Z,79.85
2019-03-27T04:44:13.132Z,79.94
2019-03-27T04:46:43.295Z,80.30
2019-03-27T04:49:11.819Z,80.27
2019-03-27T04:51:40.298Z,80.25
2019-03-27T04:54:09.106Z,80.32
2019-03-27T04:56:37.649Z,80.41
2019-03-27T04:59:05.929Z,80.67
2019-03-27T05:01:35.158Z,81.06
2019-03-27T05:04:04.915Z,81.98
2019-03-27T05:06:35.017Z,82.09
2019-03-27T05:09:04.417Z,82.37
2019-03-27T05:11:32.921Z,83.34
2019-03-27T05:14:02.692Z,81.81
2019-03-27T05:16:31.098Z,81.05
2019-03-27T05:18:59.458Z,81.88
2019-03-27T05:21:27.973Z,81.96
2019-03-27T05:23:56.411Z,81.87
2019-03-27T05:26:24.838Z,81.63
2019-03-27T05:28:59.998Z,81.54
2019-03-27T05:31:28.383Z,81.63
2019-03-27T05:33:56.944Z,81.81
2019-03-27T05:36:25.347Z,82.37
2019-03-27T05:38:54.612Z,82.79
2019-03-27T05:41:22.927Z,82.06
2019-03-27T05:43:52.317Z,82.10
2019-03-27T05:46:20.737Z,82.14
2019-03-27T05:48:49.202Z,82.12
2019-03-27T05:51:17.519Z,82.21
2019-03-27T05:53:46.387Z,82.37
2019-03-27T05:56:14.683Z,82.58
2019-03-27T05:58:43.333Z,82.67
2019-03-27T06:01:11.624Z,82.07
2019-03-27T06:03:40.092Z,82.15
2019-03-27T06:06:08.596Z,82.97
2019-03-27T06:08:37.077Z,82.90
2019-03-27T06:11:05.785Z,82.71
2019-03-27T06:13:34.260Z,82.92
2019-03-27T06:16:03.629Z,83.10
2019-03-27T06:18:32.124Z,83.08
2019-03-27T06:21:00.403Z,82.80
2019-03-27T06:23:28.791Z,82.67
2019-03-27T06:25:57.196Z,83.54
2019-03-27T06:28:26.128Z,82.84
2019-03-27T06:30:54.564Z,83.09
2019-03-27T06:33:22.941Z,83.17
2019-03-27T06:35:51.370Z,83.28
2019-03-27T06:38:19.826Z,83.36
2019-03-27T06:40:48.270Z,83.30
2019-03-27T06:43:16.928Z,83.65
2019-03-27T06:45:48.633Z,83.57
2019-03-27T06:48:26.213Z,84.96
2019-03-27T06:50:51.162Z,83.68
2019-03-27T06:53:20.318Z,83.22
2019-03-27T06:55:49.695Z,82.99
2019-03-27T06:58:18.176Z,83.36
2019-03-27T07:00:46.791Z,84.27
2019-03-27T07:03:15.170Z,83.39
2019-03-27T07:05:43.686Z,82.13
2019-03-27T07:08:11.967Z,82.03
2019-03-27T07:10:40.331Z,81.76
2019-03-27T07:13:08.709Z,81.39
2019-03-27T07:15:37.159Z,81.70
2019-03-27T07:18:05.567Z,81.90
2019-03-27T07:20:34.023Z,81.90
2019-03-27T07:23:02.449Z,82.08
2019-03-27T07:25:30.827Z,81.02
2019-03-27T07:27:59.214Z,79.63
2019-03-27T07:30:27.752Z,78.60
2019-03-27T07:33:02.703Z,78.82
2019-03-27T07:35:31.160Z,78.64
2019-03-27T07:37:59.553Z,78.33
2019-03-27T07:40:28.134Z,77.87
2019-03-27T07:42:56.464Z,77.76
2019-03-27T07:45:25.000Z,78.19
2019-03-27T07:47:53.300Z,77.98
2019-03-27T07:50:22.378Z,76.89
2019-03-27T07:52:50.718Z,76.24
2019-03-27T07:55:20.098Z,75.16
2019-03-27T07:57:48.518Z,75.30
2019-03-27T08:00:17.644Z,71.52
2019-03-27T08:02:45.953Z,72.77
2019-03-27T08:05:14.513Z,70.91
2019-03-27T08:07:43.027Z,69.65
2019-03-27T08:10:11.908Z,70.42
2019-03-27T08:12:41.173Z,69.93
2019-03-27T08:15:10.213Z,70.57
2019-03-27T08:17:38.863Z,69.83
2019-03-27T08:20:07.805Z,69.77
2019-03-27T08:22:36.243Z,68.29
2019-03-27T08:25:05.443Z,68.90
2019-03-27T08:27:33.868Z,68.24
2019-03-27T08:30:02.601Z,68.63
2019-03-27T08:32:31.096Z,68.99
2019-03-27T08:35:11.610Z,66.38
2019-03-27T08:37:40.031Z,66.27
2019-03-27T08:40:10.375Z,66.28
2019-03-27T08:42:39.020Z,64.93
2019-03-27T08:45:08.545Z,61.75
2019-03-27T08:47:37.090Z,63.41
2019-03-27T08:50:06.103Z,60.31
2019-03-27T08:52:34.545Z,60.87
2019-03-27T08:55:03.255Z,59.18
2019-03-27T08:57:31.745Z,60.21
2019-03-27T09:00:00.373Z,61.55
2019-03-27T09:02:30.535Z,61.31
2019-03-27T09:04:58.989Z,61.83
2019-03-27T09:07:27.553Z,62.10
2019-03-27T09:09:56.044Z,61.67
2019-03-27T09:12:24.758Z,61.05
2019-03-27T09:14:53.287Z,60.70
2019-03-27T09:17:21.945Z,61.51
2019-03-27T09:19:50.419Z,60.21
2019-03-27T09:22:18.847Z,56.99
2019-03-27T09:24:47.289Z,57.43
2019-03-27T09:27:15.753Z,57.31
2019-03-27T09:29:44.115Z,58.19
2019-03-27T09:32:12.785Z,57.46
2019-03-27T09:34:41.319Z,56.52
2019-03-27T09:37:21.848Z,57.64
2019-03-27T09:39:50.193Z,56.07
2019-03-27T09:42:18.620Z,54.76
2019-03-27T09:44:47.070Z,54.88
2019-03-27T09:47:15.577Z,55.02
2019-03-27T09:49:49.775Z,56.23
2019-03-27T09:52:14.275Z,52.18
2019-03-27T09:54:42.784Z,53.96
2019-03-27T09:57:11.213Z,55.07
2019-03-27T09:59:39.696Z,54.97
2019-03-27T10:02:08.268Z,52.88
2019-03-27T10:04:36.837Z,52.05
2019-03-27T10:07:05.449Z,52.57
2019-03-27T10:09:34.086Z,52.84
2019-03-27T10:12:02.649Z,52.73
2019-03-27T10:14:31.181Z,49.92
2019-03-27T10:16:59.823Z,52.69
2019-03-27T10:19:28.257Z,53.11
2019-03-27T10:21:56.749Z,51.93
2019-03-27T10:24:25.284Z,50.59
2019-03-27T10:26:53.879Z,51.65
2019-03-27T10:29:22.436Z,52.44
2019-03-27T10:31:51.102Z,50.23
2019-03-27T10:34:19.543Z,50.95
2019-03-27T10:36:48.191Z,50.30
2019-03-27T10:39:18.783Z,51.89
2019-03-27T10:41:47.652Z,49.70
2019-03-27T10:44:17.997Z,51.11
2019-03-27T10:46:46.499Z,50.90
2019-03-27T10:49:14.906Z,49.00
2019-03-27T10:51:43.310Z,48.80
2019-03-27T10:54:12.734Z,49.09
2019-03-27T10:56:41.330Z,48.35
2019-03-27T10:59:09.719Z,51.54
2019-03-27T11:01:38.218Z,53.06
2019-03-27T11:04:06.812Z,52.33
2019-03-27T11:06:35.141Z,51.55
2019-03-27T11:09:07.012Z,52.06
2019-03-27T11:11:35.880Z,50.08
2019-03-27T11:14:04.959Z,51.40
2019-03-27T11:16:33.519Z,50.93
2019-03-27T11:19:02.181Z,51.12
2019-03-27T11:21:30.614Z,50.92
2019-03-27T11:23:59.080Z,50.01
2019-03-27T11:26:27.552Z,49.72
2019-03-27T11:28:56.771Z,49.24
2019-03-27T11:31:25.269Z,49.90
2019-03-27T11:33:54.296Z,49.53
2019-03-27T11:36:23.425Z,50.04
2019-03-27T11:38:51.966Z,47.63
2019-03-27T11:41:20.490Z,48.49
2019-03-27T11:43:54.814Z,46.83
2019-03-27T11:46:19.281Z,47.90
2019-03-27T11:48:47.676Z,45.12
2019-03-27T11:51:16.243Z,44.29
2019-03-27T11:53:45.048Z,46.12
2019-03-27T11:56:13.488Z,46.12
2019-03-27T11:58:42.255Z,43.92
2019-03-27T12:01:10.542Z,45.35
2019-03-27T12:03:38.920Z,46.41
2019-03-27T12:06:07.432Z,40.20
2019-03-27T12:08:35.802Z,40.20
2019-03-27T12:11:05.422Z,43.42
2019-03-27T12:13:33.900Z,43.42
2019-03-27T12:16:02.430Z,44.48
2019-03-27T12:18:32.254Z,43.42
2019-03-27T12:21:01.115Z,43.42
2019-03-27T12:23:29.577Z,45.34
2019-03-27T12:25:58.135Z,44.73
2019-03-27T12:28:26.604Z,41.60
2019-03-27T12:30:55.089Z,41.46
2019-03-27T12:33:23.645Z,41.46
2019-03-27T12:35:52.050Z,41.84
2019-03-27T12:38:20.473Z,40.94
2019-03-27T12:40:48.803Z,39.22
2019-03-27T12:43:17.410Z,39.22
2019-03-27T12:45:45.892Z,40.54
2019-03-27T12:48:14.418Z,40.54
2019-03-27T12:50:44.556Z,41.68
2019-03-27T12:53:13.082Z,40.88
2019-03-27T12:55:41.632Z,40.88
2019-03-27T12:58:11.877Z,40.52
2019-03-27T13:00:41.292Z,39.34
2019-03-27T13:03:09.839Z,40.05
2019-03-27T13:05:38.286Z,38.45
2019-03-27T13:08:06.798Z,39.15
2019-03-27T13:10:35.392Z,39.15
2019-03-27T13:13:03.911Z,39.43
2019-03-27T13:15:33.596Z,39.25
2019-03-27T13:18:02.271Z,38.21
2019-03-27T13:20:30.792Z,38.63
2019-03-27T13:22:59.260Z,38.76
2019-03-27T13:25:28.469Z,38.76
2019-03-27T13:27:56.810Z,38.72
2019-03-27T13:30:25.300Z,38.72
2019-03-27T13:32:53.689Z,38.67
2019-03-27T13:35:22.874Z,39.04
2019-03-27T13:37:51.333Z,39.80
2019-03-27T13:40:20.153Z,39.80
2019-03-27T13:42:49.042Z,38.70
2019-03-27T13:45:18.023Z,38.70
2019-03-27T13:47:46.570Z,38.03
2019-03-27T13:50:17.411Z,39.35
2019-03-27T13:52:45.763Z,39.00
2019-03-27T13:55:14.468Z,36.93
2019-03-27T13:57:43.423Z,36.93
2019-03-27T14:00:13.714Z,37.01
2019-03-27T14:02:42.509Z,38.03
2019-03-27T14:05:11.785Z,38.37
2019-03-27T14:07:40.324Z,38.44
2019-03-27T14:10:09.301Z,38.69
2019-03-27T14:12:37.864Z,38.42
2019-03-27T14:15:07.808Z,39.16
2019-03-27T14:17:42.687Z,39.67
2019-03-27T14:20:11.709Z,39.65
2019-03-27T14:22:40.259Z,39.78
2019-03-27T14:25:10.949Z,39.40
2019-03-27T14:27:39.357Z,40.42
2019-03-27T14:30:09.245Z,40.46
2019-03-27T14:32:37.841Z,40.41
2019-03-27T14:35:06.540Z,40.10
2019-03-27T14:37:35.112Z,40.53
2019-03-27T14:40:04.334Z,40.00
2019-03-27T14:42:32.745Z,40.90
2019-03-27T14:45:01.348Z,41.91
2019-03-27T14:47:29.863Z,42.39
2019-03-27T14:49:58.252Z,44.13
2019-03-27T14:52:26.649Z,44.13
2019-03-27T14:54:55.148Z,45.46
2019-03-27T14:57:23.482Z,46.35
2019-03-27T14:59:51.923Z,46.35
2019-03-27T15:02:20.416Z,46.63
2019-03-27T15:04:48.852Z,47.19
2019-03-27T15:07:17.350Z,47.36
2019-03-27T15:09:45.744Z,48.04
2019-03-27T15:12:14.229Z,48.04
2019-03-27T15:14:42.619Z,48.37
2019-03-27T15:17:11.036Z,50.04
2019-03-27T15:19:39.534Z,50.04
2019-03-27T15:22:21.463Z,50.43
2019-03-27T15:24:38.604Z,49.89
2019-03-27T15:27:06.950Z,50.37
2019-03-27T15:29:35.280Z,50.48
2019-03-27T15:32:03.860Z,50.24
2019-03-27T15:34:32.334Z,50.76
2019-03-27T15:37:00.837Z,50.85
2019-03-27T15:39:29.147Z,51.41
2019-03-27T15:41:58.366Z,51.71
2019-03-27T15:44:27.472Z,51.71
2019-03-27T15:46:55.869Z,51.55
2019-03-27T15:49:24.298Z,51.78
2019-03-27T15:51:53.093Z,52.21
2019-03-27T15:54:23.462Z,52.20
2019-03-27T15:56:51.940Z,52.86
2019-03-27T15:59:20.520Z,52.86
2019-03-27T16:01:49.121Z,54.08
2019-03-27T16:04:17.652Z,53.73
2019-03-27T16:06:46.127Z,53.73
2019-03-27T16:09:15.817Z,54.54
2019-03-27T16:11:44.386Z,57.14
2019-03-27T16:14:13.552Z,57.04
2019-03-27T16:16:42.224Z,57.05
2019-03-27T16:19:11.698Z,57.05
2019-03-27T16:21:44.472Z,57.34
2019-03-27T16:24:12.910Z,58.77
2019-03-27T16:26:41.520Z,58.77
2019-03-27T16:29:10.546Z,59.20
2019-03-27T16:31:39.538Z,58.97
2019-03-27T16:34:08.095Z,60.44
2019-03-27T16:36:36.565Z,60.28
2019-03-27T16:39:05.862Z,61.56
2019-03-27T16:41:34.404Z,61.85
2019-03-27T16:44:03.004Z,61.65
2019-03-27T16:46:31.663Z,61.34
2019-03-27T16:49:00.154Z,63.46
2019-03-27T16:51:29.249Z,62.16
2019-03-27T16:53:57.629Z,62.37
2019-03-27T16:56:26.368Z,62.34
2019-03-27T16:58:55.207Z,62.68
2019-03-27T17:01:24.418Z,63.46
2019-03-27T17:03:53.007Z,64.50
2019-03-27T17:06:21.734Z,66.95
2019-03-27T17:08:50.386Z,65.68
2019-03-27T17:11:18.696Z,64.34
2019-03-27T17:13:47.170Z,64.59
2019-03-27T17:16:15.694Z,64.07
2019-03-27T17:18:44.216Z,63.79
2019-03-27T17:21:12.569Z,63.30
2019-03-27T17:23:42.578Z,61.92
2019-03-27T17:26:11.099Z,61.90
2019-03-27T17:28:39.679Z,62.49
2019-03-27T17:31:08.093Z,62.93
2019-03-27T17:33:36.607Z,62.96
2019-03-27T17:36:05.847Z,63.48
2019-03-27T17:38:34.327Z,63.93
2019-03-27T17:41:02.871Z,64.61
2019-03-27T17:43:31.341Z,64.58
2019-03-27T17:46:00.834Z,64.58
2019-03-27T17:48:29.281Z,64.91
2019-03-27T17:50:58.225Z,64.97
2019-03-27T17:53:31.932Z,65.41
2019-03-27T17:55:56.980Z,65.50
2019-03-27T17:58:25.524Z,65.77
2019-03-27T18:00:57.146Z,65.87
2019-03-27T18:03:25.626Z,66.08
2019-03-27T18:05:54.168Z,66.27
2019-03-27T18:08:22.773Z,66.22
2019-03-27T18:10:51.304Z,66.42
2019-03-27T18:13:19.786Z,66.50
2019-03-27T18:15:48.285Z,66.69
2019-03-27T18:18:16.824Z,66.74
2019-03-27T18:20:45.227Z,66.97
2019-03-27T18:23:14.488Z,67.03
2019-03-27T18:25:42.936Z,67.12
2019-03-27T18:28:11.412Z,67.46
2019-03-27T18:30:40.598Z,67.52
2019-03-27T18:33:09.096Z,68.03
2019-03-27T18:35:37.523Z,68.07
2019-03-27T18:38:06.095Z,68.67
2019-03-27T18:40:34.514Z,68.47
2019-03-27T18:43:03.624Z,69.04
2019-03-27T18:45:31.937Z,68.93
2019-03-27T18:48:00.451Z,69.10
2019-03-27T18:50:28.911Z,69.64
2019-03-27T18:52:57.263Z,69.89
2019-03-27T18:55:27.130Z,70.00
2019-03-27T18:58:00.302Z,70.33
2019-03-27T19:00:27.833Z,71.24
2019-03-27T19:02:56.336Z,70.84
2019-03-27T19:05:24.933Z,71.12
2019-03-27T19:07:53.433Z,71.68
2019-03-27T19:10:22.312Z,71.40
2019-03-27T19:12:51.014Z,71.58
2019-03-27T19:15:21.279Z,71.80
2019-03-27T19:17:49.940Z,72.04
2019-03-27T19:20:18.455Z,72.15
2019-03-27T19:22:46.807Z,72.24
2019-03-27T19:25:15.307Z,72.86
2019-03-27T19:27:43.755Z,73.26
2019-03-27T19:30:12.855Z,72.32
2019-03-27T19:32:41.256Z,72.56
2019-03-27T19:35:09.900Z,72.82
2019-03-27T19:37:38.347Z,73.02
2019-03-27T19:40:07.408Z,73.10
2019-03-27T19:42:36.620Z,73.45
2019-03-27T19:45:06.266Z,73.43
2019-03-27T19:47:34.681Z,73.12
2019-03-27T19:50:03.540Z,74.08
2019-03-27T19:52:32.165Z,73.74
2019-03-27T19:55:00.804Z,74.08
2019-03-27T19:57:29.399Z,74.13
2019-03-27T19:59:57.908Z,74.00
2019-03-27T20:02:26.354Z,75.08
2019-03-27T20:04:56.870Z,74.39
2019-03-27T20:07:35.329Z,74.11
2019-03-27T20:09:55.871Z,75.17
2019-03-27T20:12:24.408Z,74.49
2019-03-27T20:14:52.792Z,74.71
2019-03-27T20:17:21.196Z,74.42
2019-03-27T20:19:49.752Z,74.72
2019-03-27T20:22:18.143Z,75.42
2019-03-27T20:24:47.321Z,75.07
2019-03-27T20:27:15.852Z,75.07
2019-03-27T20:29:46.620Z,75.17
2019-03-27T20:32:15.403Z,75.08
2019-03-27T20:34:43.860Z,74.91
2019-03-27T20:37:12.178Z,75.37
2019-03-27T20:39:42.688Z,75.61
2019-03-27T20:42:10.772Z,75.94
2019-03-27T20:44:39.229Z,76.31
2019-03-27T20:47:07.561Z,76.24
2019-03-27T20:49:35.902Z,75.98
2019-03-27T20:52:04.243Z,75.72
2019-03-27T20:54:32.624Z,77.45
2019-03-27T20:57:01.616Z,76.50
2019-03-27T20:59:30.113Z,76.06
2019-03-27T21:01:58.583Z,75.85
2019-03-27T21:04:26.986Z,76.86
2019-03-27T21:06:55.407Z,76.83
2019-03-27T21:09:26.263Z,75.86
2019-03-27T21:11:56.173Z,76.92
2019-03-27T21:14:24.608Z,76.47
2019-03-27T21:16:53.097Z,76.74
2019-03-27T21:19:21.537Z,76.66
2019-03-27T21:21:49.873Z,75.86
2019-03-27T21:24:18.295Z,75.83
2019-03-27T21:26:46.723Z,75.87
2019-03-27T21:29:16.227Z,75.78
2019-03-27T21:31:44.856Z,75.60
2019-03-27T21:34:13.427Z,75.74
2019-03-27T21:36:42.066Z,75.84
2019-03-27T21:39:10.546Z,75.67
2019-03-27T21:41:38.915Z,75.64
2019-03-27T21:44:07.442Z,76.33
2019-03-27T21:46:36.500Z,75.87
2019-03-27T21:49:04.931Z,75.77
2019-03-27T21:51:33.445Z,75.92
2019-03-27T21:54:02.487Z,75.69
2019-03-27T21:56:31.943Z,75.52
2019-03-27T21:59:02.533Z,75.71
2019-03-27T22:01:30.866Z,76.42
2019-03-27T22:03:59.391Z,76.64
2019-03-27T22:06:30.399Z,77.46
2019-03-27T22:08:59.516Z,76.59
2019-03-27T22:11:27.963Z,78.02
2019-03-27T22:13:56.393Z,77.38
2019-03-27T22:16:24.751Z,77.81
2019-03-27T22:18:53.233Z,78.35
2019-03-27T22:21:21.738Z,78.83
2019-03-27T22:23:50.092Z,79.19
2019-03-27T22:26:18.700Z,79.22
2019-03-27T22:28:47.163Z,79.55
2019-03-27T22:31:16.262Z,79.75
2019-03-27T22:33:44.664Z,79.62
2019-03-27T22:36:13.354Z,79.84
2019-03-27T22:38:41.794Z,79.82
2019-03-27T22:41:10.185Z,80.50
2019-03-27T22:43:38.573Z,80.27
2019-03-27T22:46:06.905Z,80.26
2019-03-27T22:48:35.305Z,80.25
2019-03-27T22:51:03.818Z,80.09
2019-03-27T22:53:32.221Z,81.09
2019-03-27T22:56:00.617Z,82.00
2019-03-27T22:58:29.240Z,80.79
2019-03-27T23:00:58.092Z,80.95
2019-03-27T23:03:26.724Z,82.13
2019-03-27T23:05:55.181Z,81.99
2019-03-27T23:08:23.730Z,81.16
2019-03-27T23:10:52.201Z,81.77
2019-03-27T23:13:20.832Z,81.16
2019-03-27T23:15:49.506Z,81.48
2019-03-27T23:18:18.109Z,80.56
2019-03-27T23:20:46.602Z,80.39
2019-03-27T23:23:15.137Z,80.43
2019-03-27T23:25:43.608Z,80.38
2019-03-27T23:28:12.122Z,80.11
2019-03-27T23:30:40.673Z,80.10
2019-03-27T23:33:09.202Z,80.10
2019-03-27T23:35:37.698Z,80.21
2019-03-27T23:38:06.360Z,80.14
2019-03-27T23:40:36.379Z,80.63
2019-03-27T23:43:04.773Z,81.95
2019-03-27T23:45:33.098Z,82.60
2019-03-27T23:48:01.504Z,81.85
2019-03-27T23:50:29.816Z,81.23
2019-03-27T23:52:58.258Z,82.43
2019-03-27T23:55:26.578Z,82.34
2019-03-27T23:57:55.174Z,83.62
